Time;durP1;ratioP1;P1;durP2;ratioP2;P2;SDS_P1;SDS_P2;PMS_P1;PMS_P2;Temp;Humidity;BMP_temperature;BMP_pressure;BME280_temperature;BME280_humidity;BME280_pressure;Samples;Min_cycle;Max_cycle;Signal;HPM_P1;HPM_P2
2021/12/19 00:01:13;;;;;;;13.93;7.82;;;;;;;0.64;76.13;97837.00;4926320;29;20046;-91
2021/12/19 00:09:09;;;;;;;9.80;6.95;;;;;;;0.38;76.50;97836.88;4941262;29;20043;-89
2021/12/19 00:11:35;;;;;;;10.68;7.68;;;;;;;0.44;76.68;97836.47;4941059;29;20117;-89
2021/12/19 00:14:01;;;;;;;9.27;7.00;;;;;;;0.51;76.50;97817.72;4894736;29;20070;-87
2021/12/19 00:16:27;;;;;;;10.65;7.30;;;;;;;0.60;76.96;97825.88;4926358;29;20077;-83
2021/12/19 00:18:53;;;;;;;11.75;7.28;;;;;;;0.69;76.65;97814.75;4894162;29;20134;-92
2021/12/19 00:21:19;;;;;;;9.73;7.68;;;;;;;0.82;76.53;97799.00;4910404;29;20272;-88
2021/12/19 00:23:46;;;;;;;9.45;6.90;;;;;;;0.73;75.90;97797.81;4925270;29;20058;-89
2021/12/19 00:26:12;;;;;;;9.75;7.07;;;;;;;0.61;76.50;97790.72;4940945;29;20102;-87
2021/12/19 00:28:39;;;;;;;10.98;6.88;;;;;;;0.57;76.11;97802.41;4940035;29;20081;-87
2021/12/19 00:31:05;;;;;;;10.88;7.60;;;;;;;0.56;76.16;97802.47;4892981;29;20043;-88
2021/12/19 00:33:31;;;;;;;10.90;8.15;;;;;;;0.59;76.72;97808.38;4957365;29;20055;-87
2021/12/19 00:35:57;;;;;;;13.68;9.02;;;;;;;0.62;76.33;97797.66;4940409;29;20063;-90
2021/12/19 00:38:23;;;;;;;12.82;8.40;;;;;;;0.62;76.83;97795.03;4924825;29;20130;-88
2021/12/19 00:40:49;;;;;;;12.35;9.13;;;;;;;0.80;76.35;97800.06;4911116;29;20043;-88
2021/12/19 00:43:34;;;;;;;19.02;9.27;;;;;;;0.80;76.38;97784.28;4947186;29;20130;-87
2021/12/19 00:46:07;;;;;;;14.13;8.50;;;;;;;0.94;75.57;97802.59;4932697;29;20454;-89
2021/12/19 00:48:34;;;;;;;13.48;9.23;;;;;;;0.98;75.56;97788.34;4909670;29;20043;-88
2021/12/19 00:51:00;;;;;;;14.02;9.40;;;;;;;0.98;75.79;97783.06;4957241;29;20051;-89
2021/12/19 00:53:27;;;;;;;13.25;9.13;;;;;;;0.84;75.61;97776.09;4939955;29;20043;-89
2021/12/19 00:55:53;;;;;;;14.15;9.35;;;;;;;0.88;75.42;97782.00;4940272;29;20043;-87
2021/12/19 00:58:19;;;;;;;13.38;8.95;;;;;;;0.90;75.31;97769.56;4924173;29;20051;-86
2021/12/19 01:00:45;;;;;;;14.05;9.45;;;;;;;0.91;75.57;97781.78;4908451;29;20478;-82
2021/12/19 01:03:11;;;;;;;14.55;9.52;;;;;;;0.82;75.73;97777.13;4909651;29;20051;-88
2021/12/19 01:05:38;;;;;;;11.57;8.68;;;;;;;0.81;75.61;97776.28;4954022;29;20102;-88
2021/12/19 01:08:05;;;;;;;12.65;8.68;;;;;;;0.86;75.79;97774.19;4940901;29;20043;-88
2021/12/19 01:10:31;;;;;;;10.15;8.15;;;;;;;0.85;75.85;97776.91;4925857;29;20045;-90
2021/12/19 01:12:57;;;;;;;14.00;9.18;;;;;;;0.89;75.78;97773.16;4952278;29;20051;-89
2021/12/19 01:15:23;;;;;;;13.65;8.88;;;;;;;0.82;75.71;97771.84;4949374;29;20067;-87
2021/12/19 01:17:50;;;;;;;13.02;8.57;;;;;;;0.86;76.01;97773.34;4917265;29;20054;-87
2021/12/19 01:20:21;;;;;;;16.70;10.30;;;;;;;0.88;75.96;97771.47;4957119;29;20046;-89
2021/12/19 01:22:47;;;;;;;18.58;11.07;;;;;;;0.98;76.11;97772.56;4940393;29;20059;-90
2021/12/19 01:25:16;;;;;;;16.90;11.05;;;;;;;1.07;75.52;97766.66;4909089;29;20039;-86
2021/12/19 01:27:42;;;;;;;21.48;13.10;;;;;;;1.04;75.66;97761.59;4941493;29;20477;-90
2021/12/19 01:30:09;;;;;;;22.73;12.82;;;;;;;1.03;75.41;97749.41;4941275;29;20043;-90
2021/12/19 01:32:35;;;;;;;25.30;14.23;;;;;;;1.09;75.33;97741.09;4924233;29;20062;-90
2021/12/19 01:35:01;;;;;;;20.30;12.40;;;;;;;1.03;75.46;97733.63;4907938;29;20105;-89
2021/12/19 01:37:27;;;;;;;23.33;14.00;;;;;;;1.14;75.15;97736.38;4924565;29;20055;-88
2021/12/19 01:39:53;;;;;;;28.98;15.45;;;;;;;1.21;75.25;97731.53;4923675;29;20529;-90
2021/12/19 01:42:20;;;;;;;27.77;16.67;;;;;;;1.20;75.26;97735.97;4956859;29;20055;-88
2021/12/19 01:44:47;;;;;;;38.03;18.95;;;;;;;1.19;75.22;97744.78;4956384;29;20384;-90
2021/12/19 01:47:14;;;;;;;49.78;24.23;;;;;;;1.20;75.27;97738.59;4939474;29;20075;-89
2021/12/19 01:49:41;;;;;;;49.70;24.08;;;;;;;1.24;75.33;97715.50;4939405;29;20050;-90
2021/12/19 01:52:06;;;;;;;53.22;23.75;;;;;;;1.30;74.75;97716.91;4923285;29;20047;-90
2021/12/19 01:54:33;;;;;;;47.50;23.75;;;;;;;1.27;74.98;97725.00;4907272;29;20046;-88
2021/12/19 01:56:59;;;;;;;42.38;20.95;;;;;;;1.23;74.97;97723.53;4957063;29;20086;-90
2021/12/19 01:59:25;;;;;;;46.35;21.98;;;;;;;1.25;75.08;97721.66;4925821;29;20053;-89
2021/12/19 02:01:53;;;;;;;36.33;17.63;;;;;;;1.20;74.79;97711.41;4936252;29;20047;-87
2021/12/19 02:04:21;;;;;;;32.75;16.35;;;;;;;1.21;74.96;97711.31;4962909;29;20074;-84
2021/12/19 02:06:47;;;;;;;28.05;14.63;;;;;;;1.30;74.95;97701.09;4935002;29;20138;-85
2021/12/19 02:09:13;;;;;;;27.98;14.77;;;;;;;1.31;74.99;97700.16;4939507;29;20043;-87
2021/12/19 02:11:41;;;;;;;25.15;13.90;;;;;;;1.12;74.74;97706.66;4939626;29;20431;-85
2021/12/19 02:14:08;;;;;;;35.72;19.58;;;;;;;1.02;75.00;97700.38;4939808;29;20109;-87
2021/12/19 02:16:35;;;;;;;36.20;19.10;;;;;;;1.01;75.64;97706.53;4895686;29;20043;-87
2021/12/19 02:19:01;;;;;;;39.08;20.25;;;;;;;0.97;75.52;97703.28;4956211;29;20047;-84
2021/12/19 02:21:27;;;;;;;37.72;19.80;;;;;;;1.00;75.68;97696.97;4907781;29;20054;-89
2021/12/19 02:23:57;;;;;;;38.30;19.42;;;;;;;0.99;75.98;97700.56;4939783;29;20043;-84
2021/12/19 02:26:23;;;;;;;54.83;24.08;;;;;;;0.96;76.09;97685.81;4954087;29;20043;-83
2021/12/19 02:28:49;;;;;;;60.95;25.35;;;;;;;1.02;76.24;97695.09;4938420;29;20078;-83
2021/12/19 02:31:15;;;;;;;56.45;24.63;;;;;;;1.05;76.14;97675.59;4954063;29;20043;-80
2021/12/19 02:33:52;;;;;;;56.63;25.55;;;;;;;1.03;75.90;97675.72;4922285;29;20051;-84
2021/12/19 02:36:27;;;;;;;57.15;26.33;;;;;;;1.07;76.31;97687.72;4937993;29;20154;-83
2021/12/19 02:50:06;;;;;;;91.97;31.20;;;;;;;0.85;76.75;97669.06;4938219;28;20439;-83
2021/12/19 02:52:33;;;;;;;78.32;28.17;;;;;;;0.96;76.54;97669.19;4938018;29;20083;-80
2021/12/19 02:54:59;;;;;;;80.88;26.63;;;;;;;0.96;76.58;97669.19;4937666;29;20098;-84
2021/12/19 02:57:26;;;;;;;60.72;24.58;;;;;;;0.96;76.79;97663.94;4954072;29;20054;-83
2021/12/19 02:59:52;;;;;;;69.65;26.38;;;;;;;0.96;76.50;97666.56;4954182;29;20043;-82
2021/12/19 03:02:18;;;;;;;58.60;25.65;;;;;;;1.02;76.13;97663.53;4953880;29;20434;-82
2021/12/19 03:04:56;;;;;;;56.88;24.08;;;;;;;1.05;76.59;97651.94;4922113;29;20050;-82
2021/12/19 03:07:24;;;;;;;51.38;22.15;;;;;;;0.94;76.32;97650.91;4922541;29;20043;-84
2021/12/19 03:17:58;;;;;;;49.85;19.95;;;;;;;0.94;76.49;97645.63;4930531;29;20051;-84
2021/12/19 03:20:30;;;;;;;46.00;19.48;;;;;;;0.97;77.08;97644.56;4926294;29;20063;-80
2021/12/19 03:22:58;;;;;;;45.15;19.98;;;;;;;0.94;77.13;97634.25;4958749;29;20039;-85
2021/12/19 03:25:24;;;;;;;54.40;20.50;;;;;;;1.05;76.42;97633.50;4950395;28;20039;-84
2021/12/19 03:27:50;;;;;;;57.85;21.63;;;;;;;0.90;75.92;97638.91;4941266;28;20101;-82
2021/12/19 03:30:16;;;;;;;61.20;22.35;;;;;;;0.75;76.17;97623.28;4948896;29;20507;-84
2021/12/19 03:32:42;;;;;;;57.47;21.58;;;;;;;0.78;76.67;97623.94;4954477;29;20058;-83
2021/12/19 03:35:08;;;;;;;57.13;21.52;;;;;;;0.84;76.46;97618.25;4937453;29;20138;-84
2021/12/19 03:37:35;;;;;;;49.47;20.27;;;;;;;0.78;76.27;97612.56;4953719;29;20062;-84
2021/12/19 03:40:50;;;;;;;52.65;20.58;;;;;;;0.82;76.31;97611.41;4941868;28;20043;-85
2021/12/19 03:42:52;;;;;;;45.42;19.85;;;;;;;0.77;76.31;97600.38;4935294;28;20165;-88
2021/12/19 03:45:20;;;;;;;44.28;18.67;;;;;;;0.70;76.69;97606.03;4923413;28;20129;-88
2021/12/19 03:47:46;;;;;;;40.15;19.25;;;;;;;0.72;76.80;97598.91;4924123;28;20039;-86
2021/12/19 03:50:15;;;;;;;42.38;18.95;;;;;;;0.82;76.47;97603.53;4956066;28;20043;-85
2021/12/19 03:52:42;;;;;;;38.85;17.65;;;;;;;0.83;76.39;97606.06;4941608;28;20046;-82
2021/12/19 03:55:08;;;;;;;45.22;18.67;;;;;;;0.90;76.13;97599.44;4909244;28;20150;-83
2021/12/19 03:57:34;;;;;;;47.20;18.50;;;;;;;0.84;76.40;97606.91;4956396;28;20046;-84
2021/12/19 04:00:00;;;;;;;42.22;18.40;;;;;;;0.83;76.66;97607.81;4924947;28;20043;-85
2021/12/19 04:02:28;;;;;;;39.33;18.05;;;;;;;0.95;76.24;97607.84;4941316;28;20445;-84
2021/12/19 04:04:56;;;;;;;45.05;19.30;;;;;;;1.04;76.08;97601.09;4977350;28;20046;-83
2021/12/19 04:07:23;;;;;;;45.67;17.67;;;;;;;1.04;76.01;97603.72;4959892;28;20544;-83
2021/12/19 04:09:49;;;;;;;46.13;18.95;;;;;;;1.09;76.20;97600.78;4944154;28;20046;-83
2021/12/19 04:12:15;;;;;;;38.22;17.98;;;;;;;1.11;75.96;97597.09;4959781;28;20497;-83
2021/12/19 04:14:41;;;;;;;42.75;18.00;;;;;;;1.12;76.15;97593.50;4928152;28;20074;-82
2021/12/19 04:17:07;;;;;;;39.05;18.17;;;;;;;1.11;75.41;97588.38;4959886;28;20470;-84
2021/12/19 04:19:33;;;;;;;37.03;18.35;;;;;;;0.89;76.08;97573.22;4959655;28;20486;-83
2021/12/19 04:22:00;;;;;;;46.35;18.00;;;;;;;0.91;75.92;97576.59;4943494;28;20560;-84
2021/12/19 04:24:26;;;;;;;39.15;16.88;;;;;;;0.93;75.91;97585.22;4928331;28;20133;-83
2021/12/19 04:26:53;;;;;;;46.00;17.92;;;;;;;1.02;76.14;97579.34;4959405;28;20035;-85
2021/12/19 04:29:20;;;;;;;50.33;18.58;;;;;;;0.86;75.59;97573.44;4927892;28;20043;-86
2021/12/19 04:31:46;;;;;;;42.35;17.88;;;;;;;0.75;76.17;97574.16;4943795;28;20050;-84
2021/12/19 04:34:13;;;;;;;48.97;18.83;;;;;;;0.79;76.47;97578.28;4943216;28;20102;-85
2021/12/19 04:36:42;;;;;;;43.00;18.23;;;;;;;0.86;76.09;97574.25;4927647;28;20107;-84
2021/12/19 04:58:21;;;;;;;45.38;18.30;;;;;;;0.95;76.35;97572.81;4961086;28;20054;-86
2021/12/19 05:01:09;;;;;;;44.03;17.35;;;;;;;1.02;76.08;97578.50;4932563;28;20513;-84
2021/12/19 05:03:51;;;;;;;36.30;16.40;;;;;;;1.10;75.60;97570.91;4976620;28;20042;-84
2021/12/19 05:13:58;;;;;;;49.95;19.40;;;;;;;1.13;75.67;97582.06;4959479;28;20137;-84
2021/12/19 05:14:51;;;;;;;40.00;18.25;;;;;;;1.26;74.95;97562.75;4931828;28;20050;-84
2021/12/19 05:17:22;;;;;;;42.88;16.50;;;;;;;1.19;74.83;97560.56;4958341;28;20703;-83
2021/12/19 05:20:15;;;;;;;39.65;16.38;;;;;;;1.19;75.15;97567.63;4975824;28;20490;-84
2021/12/19 05:22:42;;;;;;;34.97;15.80;;;;;;;1.14;74.67;97569.75;4957725;28;20074;-85
2021/12/19 05:25:15;;;;;;;49.58;19.23;;;;;;;1.08;75.12;97564.91;4963264;28;20494;-85
2021/12/19 05:27:42;;;;;;;50.80;19.25;;;;;;;1.00;75.62;97559.34;4977038;28;20043;-84
2021/12/19 05:30:09;;;;;;;52.15;20.15;;;;;;;0.85;75.26;97554.19;4927309;28;20046;-84
2021/12/19 05:32:36;;;;;;;72.82;24.25;;;;;;;1.03;75.51;97565.22;4958605;28;20053;-91
2021/12/19 05:35:02;;;;;;;72.95;25.95;;;;;;;1.09;75.52;97562.16;4959941;28;20207;-86
2021/12/19 05:45:42;;;;;;;78.90;25.30;;;;;;;1.24;75.19;97562.03;4975642;28;20478;-86
2021/12/19 05:48:08;;;;;;;84.32;28.85;;;;;;;1.19;75.37;97565.81;4958323;28;20082;-85
2021/12/19 05:50:34;;;;;;;82.63;29.13;;;;;;;1.18;74.87;97564.16;4926277;28;20534;-85
2021/12/19 05:53:00;;;;;;;99.50;28.50;;;;;;;1.13;74.96;97563.63;4926180;28;20050;-84
2021/12/19 05:55:27;;;;;;;93.70;30.48;;;;;;;1.24;75.54;97562.03;4961476;28;20129;-81
2021/12/19 05:57:53;;;;;;;88.22;30.80;;;;;;;1.23;74.91;97552.44;4956278;28;20057;-83
2021/12/19 06:00:19;;;;;;;72.93;28.25;;;;;;;1.29;74.94;97558.13;4959288;28;20042;-85
2021/12/19 06:02:45;;;;;;;71.32;27.65;;;;;;;1.34;74.77;97553.38;4916870;28;20043;-86
2021/12/19 06:05:12;;;;;;;57.17;23.30;;;;;;;1.36;75.02;97545.38;4942548;28;20050;-88
2021/12/19 06:07:38;;;;;;;45.88;20.15;;;;;;;1.41;74.44;97545.88;4960503;28;20039;-92
2021/12/19 06:10:05;;;;;;;40.05;17.50;;;;;;;1.41;74.77;97538.81;4945194;28;20051;-90
2021/12/19 06:12:31;;;;;;;34.65;17.02;;;;;;;1.28;74.99;97538.03;4962194;28;20046;-91
2021/12/19 06:14:58;;;;;;;32.15;14.38;;;;;;;1.38;74.85;97539.03;4976026;28;20613;-90
2021/12/19 06:17:24;;;;;;;28.38;13.40;;;;;;;1.27;74.63;97541.59;4976692;28;20070;-89
2021/12/19 06:19:50;;;;;;;26.35;12.05;;;;;;;1.20;75.20;97527.19;4977379;28;20493;-88
2021/12/19 06:22:16;;;;;;;22.33;11.65;;;;;;;1.22;75.67;97530.56;4958652;28;20051;-92
2021/12/19 06:24:42;;;;;;;14.50;9.82;;;;;;;1.34;75.84;97531.47;4958632;28;20134;-85
2021/12/19 06:27:08;;;;;;;22.02;9.90;;;;;;;1.42;75.37;97521.22;4941689;28;20177;-87
2021/12/19 06:29:34;;;;;;;18.63;9.82;;;;;;;1.48;75.28;97526.06;4975030;28;20073;-85
2021/12/19 06:32:00;;;;;;;19.90;11.15;;;;;;;1.41;75.04;97517.75;4957376;28;20122;-88
2021/12/19 06:34:26;;;;;;;20.67;10.02;;;;;;;1.45;74.91;97513.94;4941576;28;20046;-85
2021/12/19 06:36:53;;;;;;;18.00;8.73;;;;;;;1.52;74.93;97519.63;4941650;28;20485;-86
2021/12/19 06:39:22;;;;;;;18.52;10.27;;;;;;;1.50;75.02;97502.25;4957076;28;20097;-86
2021/12/19 06:41:48;;;;;;;24.75;12.35;;;;;;;1.55;75.25;97514.13;4941411;28;20062;-86
2021/12/19 06:44:14;;;;;;;32.20;16.95;;;;;;;1.73;75.34;97511.09;4925535;28;20133;-87
2021/12/19 06:46:41;;;;;;;33.55;17.08;;;;;;;1.82;74.97;97518.34;4925362;28;20060;-90
2021/12/19 06:49:07;;;;;;;39.45;19.88;;;;;;;1.96;75.03;97502.34;4942342;28;20472;-87
2021/12/19 06:51:33;;;;;;;52.78;24.77;;;;;;;2.06;74.23;97508.59;4974295;28;20035;-86
2021/12/19 06:54:00;;;;;;;57.35;25.25;;;;;;;2.09;73.90;97499.63;4941089;28;20085;-88
2021/12/19 06:56:26;;;;;;;73.13;29.48;;;;;;;2.05;74.10;97495.53;4894217;28;20043;-87
2021/12/19 06:58:52;;;;;;;80.43;30.85;;;;;;;2.03;73.82;97503.56;4942822;28;20046;-85
2021/12/19 07:01:18;;;;;;;90.55;33.97;;;;;;;2.09;73.92;97497.81;4894856;28;20050;-89
2021/12/19 07:03:44;;;;;;;84.93;33.30;;;;;;;2.11;73.99;97514.38;4927380;28;20074;-91
2021/12/19 07:06:10;;;;;;;55.20;25.23;;;;;;;2.16;73.74;97504.31;4974412;28;20046;-84
2021/12/19 07:08:36;;;;;;;53.85;21.40;;;;;;;2.17;73.41;97500.72;4956610;28;20517;-83
2021/12/19 07:11:04;;;;;;;39.67;20.15;;;;;;;2.21;73.15;97505.75;4925598;28;20106;-85
2021/12/19 07:13:29;;;;;;;23.60;13.05;;;;;;;2.19;73.42;97498.00;4924761;28;20043;-84
2021/12/19 07:15:56;;;;;;;17.13;10.40;;;;;;;2.13;73.23;97503.72;4957530;28;20122;-87
2021/12/19 07:18:22;;;;;;;13.63;8.23;;;;;;;2.08;73.38;97500.59;4957372;28;20433;-85
2021/12/19 07:20:48;;;;;;;10.38;7.57;;;;;;;2.05;73.72;97506.91;4973895;28;20050;-83
2021/12/19 07:23:16;;;;;;;10.38;6.97;;;;;;;2.05;73.66;97517.47;4973368;28;20055;-84
2021/12/19 07:25:42;;;;;;;9.63;5.97;;;;;;;1.98;73.57;97510.97;4942317;28;20051;-84
2021/12/19 07:28:08;;;;;;;6.63;5.30;;;;;;;1.93;73.55;97510.47;4943124;28;20058;-87
2021/12/19 07:30:36;;;;;;;7.75;5.55;;;;;;;1.86;73.99;97498.72;4940296;28;20046;-87
2021/12/19 07:33:06;;;;;;;8.13;5.68;;;;;;;2.00;73.82;97497.69;4941204;28;20522;-88
2021/12/19 07:35:35;;;;;;;7.22;4.78;;;;;;;2.02;73.60;97493.97;4940854;28;20073;-87
2021/12/19 07:38:03;;;;;;;5.18;4.30;;;;;;;2.09;73.67;97497.81;4960570;28;20185;-87
2021/12/19 07:40:36;;;;;;;6.00;4.70;;;;;;;2.14;73.64;97487.78;4963446;28;20090;-86
2021/12/19 07:43:03;;;;;;;4.72;3.78;;;;;;;2.14;73.50;97500.97;4902192;29;20056;-89
2021/12/19 07:45:31;;;;;;;4.78;4.25;;;;;;;2.18;74.19;97498.91;4855321;29;20056;-86
2021/12/19 07:47:58;;;;;;;4.57;3.95;;;;;;;2.19;73.58;97498.00;4870865;29;20484;-86
2021/12/19 07:50:24;;;;;;;5.65;4.70;;;;;;;2.18;73.79;97486.59;4871099;29;20051;-88
2021/12/19 07:52:51;;;;;;;6.90;4.78;;;;;;;2.28;73.52;97491.16;4903167;29;20048;-88
2021/12/19 07:55:17;;;;;;;4.45;3.88;;;;;;;2.27;73.89;97495.59;4871072;29;20088;-87
2021/12/19 07:57:44;;;;;;;4.57;3.97;;;;;;;2.22;73.96;97486.34;4887592;29;20052;-87
2021/12/19 08:00:11;;;;;;;5.90;5.10;;;;;;;2.22;73.58;97489.84;4921185;29;20075;-87
2021/12/19 08:02:40;;;;;;;4.55;4.13;;;;;;;2.07;74.17;97473.41;4886772;29;20511;-85
2021/12/19 08:05:07;;;;;;;4.50;3.72;;;;;;;2.22;73.72;97487.22;4870971;29;20099;-86
2021/12/19 08:07:33;;;;;;;4.88;3.95;;;;;;;2.27;74.06;97484.22;4871128;29;20401;-86
2021/12/19 08:12:48;;;;;;;5.40;4.00;;;;;;;2.29;73.70;97484.94;4885517;28;20131;-85
2021/12/19 08:15:15;;;;;;;4.18;3.78;;;;;;;2.46;73.67;97463.41;4928145;28;20078;-85
2021/12/19 08:17:41;;;;;;;4.15;3.10;;;;;;;2.56;73.11;97474.09;4912113;28;20409;-84
2021/12/19 08:20:09;;;;;;;5.13;3.30;;;;;;;2.58;73.31;97462.44;4911822;28;20042;-85
2021/12/19 08:22:36;;;;;;;3.75;3.10;;;;;;;2.63;73.04;97465.56;4960114;28;20434;-86
2021/12/19 08:25:03;;;;;;;3.75;3.00;;;;;;;2.67;72.98;97463.50;4927624;28;20430;-83
2021/12/19 08:27:30;;;;;;;3.88;3.10;;;;;;;2.79;72.50;97459.09;4912953;28;20042;-87
2021/12/19 08:29:56;;;;;;;4.43;3.30;;;;;;;2.72;72.46;97453.47;4897056;28;20490;-88
2021/12/19 08:32:23;;;;;;;4.55;3.28;;;;;;;2.83;72.38;97460.53;4912013;28;20043;-84
2021/12/19 08:34:49;;;;;;;3.70;3.30;;;;;;;2.74;72.49;97450.69;4927351;28;20051;-84
2021/12/19 08:37:15;;;;;;;3.58;2.97;;;;;;;2.78;72.21;97457.41;4927118;28;20058;-86
2021/12/19 08:39:44;;;;;;;4.97;3.50;;;;;;;2.72;72.20;97447.34;4959082;28;20053;-86
2021/12/19 08:42:11;;;;;;;4.30;2.97;;;;;;;2.67;72.20;97448.56;4942944;28;20061;-85
2021/12/19 08:44:37;;;;;;;4.35;2.72;;;;;;;2.68;72.35;97444.09;4976186;28;20047;-87
2021/12/19 08:47:07;;;;;;;3.65;2.75;;;;;;;2.60;72.39;97434.16;4944096;28;20054;-88
2021/12/19 08:49:34;;;;;;;3.35;2.83;;;;;;;2.70;72.46;97443.97;4942633;28;20039;-88
2021/12/19 08:52:01;;;;;;;3.35;3.05;;;;;;;2.67;72.40;97442.41;4959150;28;20503;-85
2021/12/19 08:54:27;;;;;;;3.22;2.55;;;;;;;2.67;72.37;97438.00;4958571;28;20049;-86
2021/12/19 08:56:53;;;;;;;2.97;2.60;;;;;;;2.78;72.18;97437.13;4958579;28;20474;-87
2021/12/19 08:59:19;;;;;;;2.53;2.33;;;;;;;2.73;72.13;97427.91;4959027;28;20049;-86
2021/12/19 09:01:47;;;;;;;2.15;1.95;;;;;;;2.60;72.47;97434.16;4958999;28;20508;-86
2021/12/19 09:04:13;;;;;;;2.50;2.30;;;;;;;2.77;72.18;97435.47;4976491;28;20051;-87
2021/12/19 09:06:39;;;;;;;2.50;2.20;;;;;;;2.74;72.06;97434.88;4942355;28;20121;-87
2021/12/19 09:09:05;;;;;;;3.65;1.88;;;;;;;2.83;72.09;97428.88;4942535;28;20042;-87
2021/12/19 09:11:32;;;;;;;2.38;2.03;;;;;;;2.91;71.27;97437.03;4975750;28;20097;-85
2021/12/19 09:13:58;;;;;;;1.83;1.73;;;;;;;2.84;71.62;97427.91;4974789;28;20051;-85
2021/12/19 09:16:25;;;;;;;2.45;1.70;;;;;;;2.66;71.43;97438.94;4976597;28;20042;-87
2021/12/19 09:18:51;;;;;;;1.70;1.60;;;;;;;2.66;71.63;97427.53;4960019;28;20106;-87
2021/12/19 09:21:17;;;;;;;1.92;1.80;;;;;;;2.48;72.35;97419.28;4959925;28;20133;-86
2021/12/19 09:23:43;;;;;;;1.90;1.70;;;;;;;2.54;72.33;97418.81;4958885;28;20049;-85
2021/12/19 09:26:11;;;;;;;1.80;1.70;;;;;;;2.44;72.70;97417.84;4959486;28;20074;-85
2021/12/19 09:28:37;;;;;;;1.75;1.65;;;;;;;2.54;72.06;97417.97;4963063;28;20054;-86
2021/12/19 09:31:03;;;;;;;1.60;1.50;;;;;;;2.47;71.94;97414.97;4962109;28;20396;-87
2021/12/19 09:33:29;;;;;;;2.45;1.70;;;;;;;2.40;72.30;97421.66;4946622;28;20046;-85
2021/12/19 09:35:57;;;;;;;1.35;1.25;;;;;;;2.38;72.20;97413.88;4942429;28;20058;-85
2021/12/19 09:38:23;;;;;;;1.92;1.73;;;;;;;2.43;72.58;97416.16;4942817;28;20043;-86
2021/12/19 09:40:50;;;;;;;1.45;1.35;;;;;;;2.54;72.67;97413.53;4943519;28;20042;-87
2021/12/19 09:43:41;;;;;;;1.50;1.40;;;;;;;2.62;72.10;97415.56;4944647;28;20078;-85
2021/12/19 09:46:13;;;;;;;1.52;1.42;;;;;;;2.56;71.54;97409.00;4961992;28;20093;-86
2021/12/19 09:48:40;;;;;;;1.85;1.42;;;;;;;2.52;71.93;97399.63;4961553;28;20105;-85
2021/12/19 09:51:10;;;;;;;3.85;1.60;;;;;;;2.55;71.50;97409.91;4950282;28;20042;-86
2021/12/19 09:53:36;;;;;;;1.90;1.50;;;;;;;2.45;71.29;97398.44;4934514;28;20111;-88
2021/12/19 09:56:03;;;;;;;1.90;1.80;;;;;;;2.40;71.82;97414.59;4959863;28;20536;-85
2021/12/19 09:58:33;;;;;;;2.33;1.90;;;;;;;2.33;72.08;97420.47;4927113;28;20097;-89
2021/12/19 10:01:00;;;;;;;2.28;2.08;;;;;;;2.28;72.42;97412.91;4974950;28;20053;-88
2021/12/19 10:03:26;;;;;;;2.17;1.98;;;;;;;2.33;72.20;97396.72;4958340;28;20046;-87
2021/12/19 10:06:11;;;;;;;2.00;1.80;;;;;;;2.31;72.57;97417.13;4942106;28;20070;-87
2021/12/19 10:08:37;;;;;;;1.80;1.70;;;;;;;2.31;72.49;97398.66;4957896;28;20077;-87
2021/12/19 10:11:12;;;;;;;2.35;1.77;;;;;;;2.22;72.59;97409.91;4926376;28;20378;-87
2021/12/19 10:13:38;;;;;;;1.77;1.67;;;;;;;2.09;73.06;97413.50;4943424;28;20054;-88
2021/12/19 10:16:27;;;;;;;1.70;1.60;;;;;;;2.10;73.30;97425.69;4958218;28;20046;-87
2021/12/19 10:18:59;;;;;;;1.70;1.60;;;;;;;2.02;73.56;97412.28;4925935;28;20113;-87
2021/12/19 10:21:27;;;;;;;1.23;1.23;;;;;;;2.06;72.96;97416.34;4910477;28;20117;-85
2021/12/19 10:23:59;;;;;;;2.47;2.27;;;;;;;1.99;72.93;97423.03;4941483;28;20098;-86
2021/12/19 10:26:25;;;;;;;2.75;1.70;;;;;;;1.91;73.42;97417.53;4942330;28;20068;-84
2021/12/19 10:28:53;;;;;;;1.67;1.58;;;;;;;1.92;73.29;97417.44;4942037;28;20498;-87
2021/12/19 10:31:19;;;;;;;1.50;1.40;;;;;;;1.89;73.02;97422.09;4927560;28;20404;-87
2021/12/19 10:33:46;;;;;;;1.92;1.73;;;;;;;1.91;72.90;97420.16;4961302;28;20074;-86
2021/12/19 10:36:12;;;;;;;1.85;1.75;;;;;;;1.85;73.08;97428.53;4941560;28;20058;-92
2021/12/19 10:38:49;;;;;;;3.75;2.50;;;;;;;1.69;72.16;97431.47;4941162;28;20110;-88
2021/12/19 10:41:16;;;;;;;2.63;2.10;;;;;;;1.53;70.44;97430.94;4894948;28;20047;-87
2021/12/19 10:43:45;;;;;;;2.45;2.25;;;;;;;1.39;69.46;97445.09;4941604;28;20054;-88
2021/12/19 10:46:11;;;;;;;2.25;2.10;;;;;;;1.19;68.79;97428.13;4940902;28;20422;-87
2021/12/19 10:48:39;;;;;;;3.50;1.88;;;;;;;1.12;69.15;97437.41;4925524;28;20581;-87
2021/12/19 10:51:07;;;;;;;2.40;2.20;;;;;;;1.09;68.88;97441.13;4925792;28;20073;-86
2021/12/19 10:53:42;;;;;;;3.00;2.53;;;;;;;1.06;69.11;97454.50;4941593;28;20383;-86
2021/12/19 10:56:10;;;;;;;3.25;2.60;;;;;;;0.93;68.72;97433.47;4957771;28;20062;-87
2021/12/19 10:58:41;;;;;;;4.28;3.58;;;;;;;1.05;69.17;97447.53;4943270;28;20042;-94
2021/12/19 11:01:14;;;;;;;4.75;3.15;;;;;;;0.98;68.49;97456.84;4943936;28;20054;-86
2021/12/19 11:03:42;;;;;;;3.95;3.13;;;;;;;0.92;68.42;97446.75;4974006;28;20047;-86
2021/12/19 11:06:29;;;;;;;3.80;3.10;;;;;;;0.82;68.96;97445.72;4941096;28;20038;-85
2021/12/19 11:08:56;;;;;;;4.10;3.55;;;;;;;0.75;68.90;97444.47;4957169;28;20039;-87
2021/12/19 11:11:32;;;;;;;4.15;3.53;;;;;;;0.80;69.26;97450.25;4957579;28;20053;-85
2021/12/19 11:13:58;;;;;;;3.53;3.20;;;;;;;0.83;68.64;97444.75;4945000;28;20047;-86
2021/12/19 11:16:24;;;;;;;6.80;3.75;;;;;;;0.69;68.66;97457.09;4913054;28;20125;-86
2021/12/19 11:18:50;;;;;;;5.97;4.53;;;;;;;0.64;69.02;97453.97;4928874;28;20205;-85
2021/12/19 11:21:18;;;;;;;4.95;3.83;;;;;;;0.51;68.94;97447.88;4978320;28;20487;-86
2021/12/19 11:23:45;;;;;;;6.00;4.45;;;;;;;0.52;69.01;97451.34;4960982;28;20150;-85
2021/12/19 11:26:11;;;;;;;5.85;4.63;;;;;;;0.53;69.07;97459.13;4944454;28;20043;-85
2021/12/19 11:28:38;;;;;;;5.00;4.07;;;;;;;0.58;69.07;97454.38;4944764;28;20053;-86
2021/12/19 11:31:04;;;;;;;4.80;4.03;;;;;;;0.47;68.82;97459.56;4928711;28;20089;-86
2021/12/19 11:34:00;;;;;;;6.82;4.72;;;;;;;0.38;68.97;97465.47;4977832;28;20081;-86
2021/12/19 11:36:28;;;;;;;4.88;4.00;;;;;;;0.37;69.21;97461.97;4909216;28;20084;-84
2021/12/19 11:38:54;;;;;;;4.13;3.30;;;;;;;0.28;69.09;97467.84;4929569;28;20410;-87
2021/12/19 11:41:20;;;;;;;4.18;3.78;;;;;;;0.14;69.56;97481.94;4978409;28;20501;-86
2021/12/19 11:43:49;;;;;;;4.05;3.45;;;;;;;0.00;69.98;97474.16;4957642;28;20066;-82
2021/12/19 11:46:23;;;;;;;4.32;3.92;;;;;;;-0.13;69.68;97468.03;4957868;28;20169;-87
2021/12/19 11:49:11;;;;;;;3.80;3.33;;;;;;;-0.21;69.73;97497.44;4955089;29;20055;-86
2021/12/19 11:51:38;;;;;;;4.30;3.38;;;;;;;-0.28;69.58;97494.34;4951814;29;20051;-86
2021/12/19 11:54:16;;;;;;;3.42;3.08;;;;;;;-0.45;69.98;97494.63;4914664;29;20474;-85
2021/12/19 11:57:14;;;;;;;4.13;3.58;;;;;;;-0.50;71.43;97512.44;4893054;29;20082;-84
2021/12/19 11:59:40;;;;;;;4.93;4.00;;;;;;;-0.57;71.85;97512.00;4866085;29;20570;-85
2021/12/19 12:02:25;;;;;;;4.40;4.00;;;;;;;-0.65;71.90;97519.50;4886794;29;20080;-87
2021/12/19 12:05:13;;;;;;;5.03;3.80;;;;;;;-0.80;72.54;97516.09;4902462;29;20091;-85
2021/12/19 12:08:07;;;;;;;5.07;3.92;;;;;;;-0.89;72.57;97521.91;4886404;29;20159;-85
2021/12/19 12:13:44;;;;;;;6.05;4.47;;;;;;;-0.98;72.53;97518.09;4886159;29;20052;-86
2021/12/19 12:16:26;;;;;;;4.82;4.03;;;;;;;-0.95;72.22;97518.84;4886165;29;20052;-84
2021/12/19 12:18:57;;;;;;;5.05;4.28;;;;;;;-0.86;72.29;97531.38;4888059;29;20052;-84
2021/12/19 12:21:30;;;;;;;6.20;4.95;;;;;;;-0.90;71.86;97522.88;4905232;29;20058;-86
2021/12/19 12:24:04;;;;;;;5.35;4.72;;;;;;;-0.92;72.01;97537.00;4905625;29;20048;-85
2021/12/19 12:27:00;;;;;;;5.65;4.13;;;;;;;-0.86;72.21;97537.47;4890670;29;20529;-83
2021/12/19 12:29:26;;;;;;;4.95;4.07;;;;;;;-0.90;71.80;97535.13;4918554;29;20550;-83
2021/12/19 12:31:53;;;;;;;4.45;4.03;;;;;;;-0.80;71.58;97531.81;4930436;28;20153;-86
2021/12/19 12:34:19;;;;;;;5.03;4.10;;;;;;;-0.73;71.85;97538.38;4926223;29;20062;-86
2021/12/19 12:36:49;;;;;;;5.03;4.30;;;;;;;-0.56;72.14;97529.44;4942998;29;20538;-87
2021/12/19 12:39:26;;;;;;;4.57;4.18;;;;;;;-0.47;71.42;97532.41;4950038;29;20364;-85
2021/12/19 12:42:00;;;;;;;6.05;4.70;;;;;;;-0.45;70.86;97551.50;4973873;28;20046;-84
2021/12/19 12:44:26;;;;;;;4.80;4.30;;;;;;;-0.53;70.01;97552.00;4944782;28;20046;-88